sensor_id;sensor_type;location;lat;lon;timestamp;P1;durP1;ratioP1;P2;durP2;ratioP2
37609;SDS011;23457;51.966;8.230;2023-07-31T00:01:14;2.88;;;2.13;;
37609;SDS011;23457;51.966;8.230;2023-07-31T00:03:41;2.75;;;2.20;;
37609;SDS011;23457;51.966;8.230;2023-07-31T00:06:08;3.22;;;2.42;;
37609;SDS011;23457;51.966;8.230;2023-07-31T00:08:34;3.95;;;2.40;;
37609;SDS011;23457;51.966;8.230;2023-07-31T00:11:01;3.20;;;2.58;;
37609;SDS011;23457;51.966;8.230;2023-07-31T00:13:27;4.18;;;2.92;;
37609;SDS011;23457;51.966;8.230;2023-07-31T00:15:54;2.78;;;2.58;;
37609;SDS011;23457;51.966;8.230;2023-07-31T00:18:21;4.20;;;3.20;;
37609;SDS011;23457;51.966;8.230;2023-07-31T00:20:47;4.07;;;3.15;;
37609;SDS011;23457;51.966;8.230;2023-07-31T00:23:14;5.75;;;3.78;;
37609;SDS011;23457;51.966;8.230;2023-07-31T00:25:41;5.97;;;3.58;;
37609;SDS011;23457;51.966;8.230;2023-07-31T00:28:07;4.28;;;3.67;;
37609;SDS011;23457;51.966;8.230;2023-07-31T00:30:34;6.97;;;4.30;;
37609;SDS011;23457;51.966;8.230;2023-07-31T00:33:01;6.40;;;3.78;;
37609;SDS011;23457;51.966;8.230;2023-07-31T00:35:28;9.02;;;4.18;;
37609;SDS011;23457;51.966;8.230;2023-07-31T00:37:56;6.93;;;4.20;;
37609;SDS011;23457;51.966;8.230;2023-07-31T00:40:24;7.20;;;4.17;;
37609;SDS011;23457;51.966;8.230;2023-07-31T00:42:50;6.88;;;3.70;;
37609;SDS011;23457;51.966;8.230;2023-07-31T00:45:17;5.75;;;3.17;;
37609;SDS011;23457;51.966;8.230;2023-07-31T00:47:44;6.22;;;3.25;;
37609;SDS011;23457;51.966;8.230;2023-07-31T00:50:11;3.72;;;2.70;;
37609;SDS011;23457;51.966;8.230;2023-07-31T00:52:37;4.75;;;2.63;;
37609;SDS011;23457;51.966;8.230;2023-07-31T00:55:04;3.45;;;2.22;;
37609;SDS011;23457;51.966;8.230;2023-07-31T00:57:32;3.40;;;2.60;;
37609;SDS011;23457;51.966;8.230;2023-07-31T00:59:59;4.35;;;2.55;;
37609;SDS011;23457;51.966;8.230;2023-07-31T01:02:26;2.70;;;1.60;;
37609;SDS011;23457;51.966;8.230;2023-07-31T01:04:53;3.35;;;1.58;;
37609;SDS011;23457;51.966;8.230;2023-07-31T01:07:22;1.83;;;1.65;;
37609;SDS011;23457;51.966;8.230;2023-07-31T01:10:11;1.98;;;1.50;;
37609;SDS011;23457;51.966;8.230;2023-07-31T01:12:47;2.15;;;1.40;;
37609;SDS011;23457;51.966;8.230;2023-07-31T01:15:14;2.42;;;1.95;;
37609;SDS011;23457;51.966;8.230;2023-07-31T01:17:43;1.77;;;1.50;;
37609;SDS011;23457;51.966;8.230;2023-07-31T01:20:12;2.45;;;1.65;;
37609;SDS011;23457;51.966;8.230;2023-07-31T01:28:19;2.22;;;1.92;;
37609;SDS011;23457;51.966;8.230;2023-07-31T01:30:51;3.08;;;1.88;;
37609;SDS011;23457;51.966;8.230;2023-07-31T01:33:21;2.10;;;1.85;;
37609;SDS011;23457;51.966;8.230;2023-07-31T01:35:49;1.67;;;1.58;;
37609;SDS011;23457;51.966;8.230;2023-07-31T01:38:19;1.98;;;1.63;;
37609;SDS011;23457;51.966;8.230;2023-07-31T01:40:50;1.88;;;1.65;;
37609;SDS011;23457;51.966;8.230;2023-07-31T01:43:19;1.88;;;1.70;;
37609;SDS011;23457;51.966;8.230;2023-07-31T01:45:46;3.22;;;2.25;;
37609;SDS011;23457;51.966;8.230;2023-07-31T01:48:12;2.17;;;1.80;;
37609;SDS011;23457;51.966;8.230;2023-07-31T01:50:40;2.92;;;1.92;;
37609;SDS011;23457;51.966;8.230;2023-07-31T01:53:07;3.75;;;2.03;;
37609;SDS011;23457;51.966;8.230;2023-07-31T01:55:33;4.30;;;2.00;;
37609;SDS011;23457;51.966;8.230;2023-07-31T01:58:00;3.47;;;1.83;;
37609;SDS011;23457;51.966;8.230;2023-07-31T02:00:27;2.67;;;1.92;;
37609;SDS011;23457;51.966;8.230;2023-07-31T02:02:53;4.10;;;2.70;;
37609;SDS011;23457;51.966;8.230;2023-07-31T02:05:20;5.90;;;2.88;;
37609;SDS011;23457;51.966;8.230;2023-07-31T02:07:47;4.90;;;3.15;;
37609;SDS011;23457;51.966;8.230;2023-07-31T02:10:13;8.25;;;3.88;;
37609;SDS011;23457;51.966;8.230;2023-07-31T02:12:40;8.98;;;4.00;;
37609;SDS011;23457;51.966;8.230;2023-07-31T02:15:07;9.45;;;4.45;;
37609;SDS011;23457;51.966;8.230;2023-07-31T02:17:34;14.48;;;5.25;;
37609;SDS011;23457;51.966;8.230;2023-07-31T02:20:02;11.60;;;5.25;;
37609;SDS011;23457;51.966;8.230;2023-07-31T02:22:29;14.27;;;6.03;;
37609;SDS011;23457;51.966;8.230;2023-07-31T02:24:55;16.92;;;6.57;;
37609;SDS011;23457;51.966;8.230;2023-07-31T02:27:22;15.35;;;6.93;;
37609;SDS011;23457;51.966;8.230;2023-07-31T02:29:50;15.88;;;7.32;;
37609;SDS011;23457;51.966;8.230;2023-07-31T02:32:17;14.38;;;6.15;;
37609;SDS011;23457;51.966;8.230;2023-07-31T02:34:44;12.55;;;5.43;;
37609;SDS011;23457;51.966;8.230;2023-07-31T02:37:10;10.90;;;4.80;;
37609;SDS011;23457;51.966;8.230;2023-07-31T02:39:37;8.40;;;4.10;;
37609;SDS011;23457;51.966;8.230;2023-07-31T02:42:04;9.23;;;4.28;;
37609;SDS011;23457;51.966;8.230;2023-07-31T02:44:31;7.40;;;3.63;;
37609;SDS011;23457;51.966;8.230;2023-07-31T02:46:57;6.43;;;3.17;;
37609;SDS011;23457;51.966;8.230;2023-07-31T02:49:24;5.50;;;4.25;;
37609;SDS011;23457;51.966;8.230;2023-07-31T02:51:51;5.95;;;4.57;;
37609;SDS011;23457;51.966;8.230;2023-07-31T02:54:17;7.97;;;5.30;;
37609;SDS011;23457;51.966;8.230;2023-07-31T02:56:44;8.45;;;5.70;;
37609;SDS011;23457;51.966;8.230;2023-07-31T02:59:11;11.15;;;7.13;;
37609;SDS011;23457;51.966;8.230;2023-07-31T03:01:38;10.77;;;8.00;;
37609;SDS011;23457;51.966;8.230;2023-07-31T03:04:04;21.90;;;11.50;;
37609;SDS011;23457;51.966;8.230;2023-07-31T03:06:31;20.17;;;12.32;;
37609;SDS011;23457;51.966;8.230;2023-07-31T03:08:58;24.63;;;12.45;;
37609;SDS011;23457;51.966;8.230;2023-07-31T03:11:24;27.02;;;14.30;;
37609;SDS011;23457;51.966;8.230;2023-07-31T03:13:51;23.20;;;14.77;;
37609;SDS011;23457;51.966;8.230;2023-07-31T03:16:18;24.95;;;14.75;;
37609;SDS011;23457;51.966;8.230;2023-07-31T03:18:45;30.02;;;15.77;;
37609;SDS011;23457;51.966;8.230;2023-07-31T03:21:12;28.20;;;15.63;;
37609;SDS011;23457;51.966;8.230;2023-07-31T03:23:39;39.10;;;16.48;;
37609;SDS011;23457;51.966;8.230;2023-07-31T03:26:06;28.08;;;16.10;;
37609;SDS011;23457;51.966;8.230;2023-07-31T03:28:34;34.33;;;15.10;;
37609;SDS011;23457;51.966;8.230;2023-07-31T03:31:00;30.67;;;14.40;;
37609;SDS011;23457;51.966;8.230;2023-07-31T03:33:28;31.95;;;14.98;;
37609;SDS011;23457;51.966;8.230;2023-07-31T03:35:55;25.65;;;14.60;;
37609;SDS011;23457;51.966;8.230;2023-07-31T03:38:22;31.95;;;13.85;;
37609;SDS011;23457;51.966;8.230;2023-07-31T03:40:49;23.85;;;13.23;;
37609;SDS011;23457;51.966;8.230;2023-07-31T03:43:15;27.75;;;14.32;;
37609;SDS011;23457;51.966;8.230;2023-07-31T03:45:42;30.30;;;13.63;;
37609;SDS011;23457;51.966;8.230;2023-07-31T03:48:10;23.67;;;13.50;;
37609;SDS011;23457;51.966;8.230;2023-07-31T03:50:37;32.72;;;13.35;;
37609;SDS011;23457;51.966;8.230;2023-07-31T03:53:03;26.13;;;15.10;;
37609;SDS011;23457;51.966;8.230;2023-07-31T03:55:30;27.85;;;14.65;;
37609;SDS011;23457;51.966;8.230;2023-07-31T03:57:56;26.42;;;15.05;;
37609;SDS011;23457;51.966;8.230;2023-07-31T04:00:23;34.63;;;14.40;;
37609;SDS011;23457;51.966;8.230;2023-07-31T04:02:50;23.23;;;14.00;;
37609;SDS011;23457;51.966;8.230;2023-07-31T04:05:16;32.08;;;13.88;;
37609;SDS011;23457;51.966;8.230;2023-07-31T04:07:43;28.50;;;13.98;;
37609;SDS011;23457;51.966;8.230;2023-07-31T04:10:10;32.15;;;13.38;;
37609;SDS011;23457;51.966;8.230;2023-07-31T04:12:39;29.67;;;12.70;;
37609;SDS011;23457;51.966;8.230;2023-07-31T04:15:06;20.80;;;12.43;;
37609;SDS011;23457;51.966;8.230;2023-07-31T04:17:32;33.10;;;13.68;;
37609;SDS011;23457;51.966;8.230;2023-07-31T04:19:59;29.58;;;11.45;;
37609;SDS011;23457;51.966;8.230;2023-07-31T04:22:27;29.58;;;11.52;;
37609;SDS011;23457;51.966;8.230;2023-07-31T04:24:54;23.17;;;11.48;;
37609;SDS011;23457;51.966;8.230;2023-07-31T04:27:20;29.50;;;12.30;;
37609;SDS011;23457;51.966;8.230;2023-07-31T04:29:47;27.98;;;12.00;;
37609;SDS011;23457;51.966;8.230;2023-07-31T04:32:14;29.17;;;11.80;;
37609;SDS011;23457;51.966;8.230;2023-07-31T04:34:43;29.95;;;13.07;;
37609;SDS011;23457;51.966;8.230;2023-07-31T04:37:10;24.17;;;11.70;;
37609;SDS011;23457;51.966;8.230;2023-07-31T04:39:36;27.15;;;11.50;;
37609;SDS011;23457;51.966;8.230;2023-07-31T04:42:03;28.67;;;11.55;;
37609;SDS011;23457;51.966;8.230;2023-07-31T04:44:30;24.55;;;11.18;;
37609;SDS011;23457;51.966;8.230;2023-07-31T04:46:56;24.48;;;10.63;;
37609;SDS011;23457;51.966;8.230;2023-07-31T04:49:23;24.42;;;10.57;;
37609;SDS011;23457;51.966;8.230;2023-07-31T04:51:50;24.95;;;10.40;;
37609;SDS011;23457;51.966;8.230;2023-07-31T04:54:17;23.08;;;9.02;;
37609;SDS011;23457;51.966;8.230;2023-07-31T04:56:43;22.58;;;9.40;;
37609;SDS011;23457;51.966;8.230;2023-07-31T04:59:10;24.05;;;9.45;;
37609;SDS011;23457;51.966;8.230;2023-07-31T05:01:36;31.00;;;8.93;;
37609;SDS011;23457;51.966;8.230;2023-07-31T05:04:03;24.15;;;8.90;;
37609;SDS011;23457;51.966;8.230;2023-07-31T05:06:30;20.65;;;8.10;;
37609;SDS011;23457;51.966;8.230;2023-07-31T05:08:56;21.77;;;8.57;;
37609;SDS011;23457;51.966;8.230;2023-07-31T05:11:23;27.00;;;8.52;;
37609;SDS011;23457;51.966;8.230;2023-07-31T05:13:50;29.20;;;8.65;;
37609;SDS011;23457;51.966;8.230;2023-07-31T05:16:16;22.05;;;8.80;;
37609;SDS011;23457;51.966;8.230;2023-07-31T05:18:43;24.02;;;9.23;;
37609;SDS011;23457;51.966;8.230;2023-07-31T05:21:09;25.05;;;7.38;;
37609;SDS011;23457;51.966;8.230;2023-07-31T05:23:36;19.48;;;6.93;;
37609;SDS011;23457;51.966;8.230;2023-07-31T05:26:06;20.33;;;8.18;;
37609;SDS011;23457;51.966;8.230;2023-07-31T05:28:34;18.33;;;6.95;;
37609;SDS011;23457;51.966;8.230;2023-07-31T05:31:02;20.70;;;8.27;;
37609;SDS011;23457;51.966;8.230;2023-07-31T05:33:30;21.83;;;7.78;;
37609;SDS011;23457;51.966;8.230;2023-07-31T05:35:57;23.85;;;7.63;;
37609;SDS011;23457;51.966;8.230;2023-07-31T05:38:23;21.30;;;7.65;;
37609;SDS011;23457;51.966;8.230;2023-07-31T05:40:50;20.05;;;8.07;;
37609;SDS011;23457;51.966;8.230;2023-07-31T05:43:17;24.25;;;8.10;;
37609;SDS011;23457;51.966;8.230;2023-07-31T05:45:43;20.77;;;7.60;;
37609;SDS011;23457;51.966;8.230;2023-07-31T05:48:10;19.25;;;7.45;;
37609;SDS011;23457;51.966;8.230;2023-07-31T05:50:37;19.13;;;7.43;;
37609;SDS011;23457;51.966;8.230;2023-07-31T05:53:05;19.50;;;7.38;;
37609;SDS011;23457;51.966;8.230;2023-07-31T05:55:34;19.27;;;6.53;;
37609;SDS011;23457;51.966;8.230;2023-07-31T05:58:00;19.40;;;8.48;;
37609;SDS011;23457;51.966;8.230;2023-07-31T06:00:27;23.60;;;7.63;;
37609;SDS011;23457;51.966;8.230;2023-07-31T06:02:54;18.92;;;7.88;;
37609;SDS011;23457;51.966;8.230;2023-07-31T06:05:21;24.70;;;7.93;;
37609;SDS011;23457;51.966;8.230;2023-07-31T06:07:48;21.52;;;8.00;;
37609;SDS011;23457;51.966;8.230;2023-07-31T06:10:14;20.58;;;8.27;;
37609;SDS011;23457;51.966;8.230;2023-07-31T06:12:41;26.23;;;7.45;;
37609;SDS011;23457;51.966;8.230;2023-07-31T06:15:12;19.27;;;7.60;;
37609;SDS011;23457;51.966;8.230;2023-07-31T06:17:39;22.13;;;7.22;;
37609;SDS011;23457;51.966;8.230;2023-07-31T06:20:06;19.33;;;7.88;;
37609;SDS011;23457;51.966;8.230;2023-07-31T06:22:33;22.00;;;8.20;;
37609;SDS011;23457;51.966;8.230;2023-07-31T06:24:59;22.27;;;7.50;;
37609;SDS011;23457;51.966;8.230;2023-07-31T06:27:26;17.23;;;7.15;;
37609;SDS011;23457;51.966;8.230;2023-07-31T06:29:53;24.77;;;7.55;;
37609;SDS011;23457;51.966;8.230;2023-07-31T06:32:19;22.98;;;7.25;;
37609;SDS011;23457;51.966;8.230;2023-07-31T06:34:46;22.15;;;7.30;;
37609;SDS011;23457;51.966;8.230;2023-07-31T06:37:13;21.60;;;8.20;;
37609;SDS011;23457;51.966;8.230;2023-07-31T06:39:39;26.88;;;7.45;;
37609;SDS011;23457;51.966;8.230;2023-07-31T06:42:06;18.70;;;6.65;;
37609;SDS011;23457;51.966;8.230;2023-07-31T06:44:33;22.17;;;7.57;;
37609;SDS011;23457;51.966;8.230;2023-07-31T06:47:00;18.55;;;7.32;;
37609;SDS011;23457;51.966;8.230;2023-07-31T06:49:26;25.23;;;7.68;;
37609;SDS011;23457;51.966;8.230;2023-07-31T06:51:53;17.48;;;6.97;;
37609;SDS011;23457;51.966;8.230;2023-07-31T06:54:20;16.05;;;7.38;;
37609;SDS011;23457;51.966;8.230;2023-07-31T06:56:46;16.17;;;7.35;;
37609;SDS011;23457;51.966;8.230;2023-07-31T06:59:13;20.00;;;7.60;;
37609;SDS011;23457;51.966;8.230;2023-07-31T07:01:39;22.05;;;8.48;;
37609;SDS011;23457;51.966;8.230;2023-07-31T07:04:06;20.05;;;8.05;;
37609;SDS011;23457;51.966;8.230;2023-07-31T07:06:32;20.95;;;8.00;;
37609;SDS011;23457;51.966;8.230;2023-07-31T07:08:59;18.00;;;8.45;;
37609;SDS011;23457;51.966;8.230;2023-07-31T07:11:26;20.90;;;7.82;;
37609;SDS011;23457;51.966;8.230;2023-07-31T07:13:52;16.52;;;7.70;;
37609;SDS011;23457;51.966;8.230;2023-07-31T07:16:19;19.48;;;7.88;;
37609;SDS011;23457;51.966;8.230;2023-07-31T07:18:45;19.73;;;8.27;;
37609;SDS011;23457;51.966;8.230;2023-07-31T07:21:29;15.05;;;7.70;;
37609;SDS011;23457;51.966;8.230;2023-07-31T07:23:56;23.83;;;8.82;;
37609;SDS011;23457;51.966;8.230;2023-07-31T07:26:22;23.10;;;9.02;;
37609;SDS011;23457;51.966;8.230;2023-07-31T07:28:49;19.20;;;8.40;;
37609;SDS011;23457;51.966;8.230;2023-07-31T07:31:16;15.52;;;7.57;;
37609;SDS011;23457;51.966;8.230;2023-07-31T07:33:43;19.15;;;8.02;;
37609;SDS011;23457;51.966;8.230;2023-07-31T07:36:09;20.52;;;8.20;;
37609;SDS011;23457;51.966;8.230;2023-07-31T07:38:36;17.90;;;7.95;;
37609;SDS011;23457;51.966;8.230;2023-07-31T07:41:03;19.90;;;8.40;;
37609;SDS011;23457;51.966;8.230;2023-07-31T07:43:30;16.15;;;7.65;;
37609;SDS011;23457;51.966;8.230;2023-07-31T07:45:56;13.63;;;7.60;;
37609;SDS011;23457;51.966;8.230;2023-07-31T07:48:23;16.15;;;7.47;;
37609;SDS011;23457;51.966;8.230;2023-07-31T07:50:51;16.80;;;7.97;;
37609;SDS011;23457;51.966;8.230;2023-07-31T07:53:18;13.13;;;7.75;;
37609;SDS011;23457;51.966;8.230;2023-07-31T07:55:44;16.13;;;8.38;;
37609;SDS011;23457;51.966;8.230;2023-07-31T07:58:11;13.73;;;8.38;;
37609;SDS011;23457;51.966;8.230;2023-07-31T08:00:38;13.70;;;8.75;;
37609;SDS011;23457;51.966;8.230;2023-07-31T08:03:06;16.10;;;8.68;;
37609;SDS011;23457;51.966;8.230;2023-07-31T08:05:33;10.95;;;7.97;;
37609;SDS011;23457;51.966;8.230;2023-07-31T08:08:00;18.63;;;7.68;;
37609;SDS011;23457;51.966;8.230;2023-07-31T08:10:27;15.48;;;7.97;;
37609;SDS011;23457;51.966;8.230;2023-07-31T08:12:54;11.80;;;7.65;;
37609;SDS011;23457;51.966;8.230;2023-07-31T08:15:20;12.80;;;7.57;;
37609;SDS011;23457;51.966;8.230;2023-07-31T08:17:47;13.02;;;7.07;;
37609;SDS011;23457;51.966;8.230;2023-07-31T08:20:14;13.73;;;7.47;;
37609;SDS011;23457;51.966;8.230;2023-07-31T08:22:41;10.25;;;6.65;;
37609;SDS011;23457;51.966;8.230;2023-07-31T08:25:07;11.95;;;7.28;;
37609;SDS011;23457;51.966;8.230;2023-07-31T08:27:35;13.02;;;6.95;;
37609;SDS011;23457;51.966;8.230;2023-07-31T08:30:01;14.07;;;7.53;;
37609;SDS011;23457;51.966;8.230;2023-07-31T08:32:28;14.48;;;7.72;;
37609;SDS011;23457;51.966;8.230;2023-07-31T08:34:55;12.38;;;8.07;;
37609;SDS011;23457;51.966;8.230;2023-07-31T08:37:22;15.90;;;8.30;;
37609;SDS011;23457;51.966;8.230;2023-07-31T08:39:48;12.93;;;7.35;;
37609;SDS011;23457;51.966;8.230;2023-07-31T08:42:15;18.10;;;7.78;;
37609;SDS011;23457;51.966;8.230;2023-07-31T08:44:41;14.05;;;7.82;;
37609;SDS011;23457;51.966;8.230;2023-07-31T08:47:10;12.88;;;7.30;;
37609;SDS011;23457;51.966;8.230;2023-07-31T08:49:37;11.93;;;7.72;;
37609;SDS011;23457;51.966;8.230;2023-07-31T08:52:04;15.63;;;7.20;;
37609;SDS011;23457;51.966;8.230;2023-07-31T08:54:32;11.70;;;7.45;;
37609;SDS011;23457;51.966;8.230;2023-07-31T08:56:59;12.65;;;7.22;;
37609;SDS011;23457;51.966;8.230;2023-07-31T08:59:30;13.80;;;6.85;;
37609;SDS011;23457;51.966;8.230;2023-07-31T09:01:59;10.85;;;6.82;;
37609;SDS011;23457;51.966;8.230;2023-07-31T09:04:31;9.90;;;6.32;;
37609;SDS011;23457;51.966;8.230;2023-07-31T09:07:02;10.57;;;6.38;;
37609;SDS011;23457;51.966;8.230;2023-07-31T09:09:30;9.63;;;6.00;;
37609;SDS011;23457;51.966;8.230;2023-07-31T09:11:58;10.05;;;5.75;;
37609;SDS011;23457;51.966;8.230;2023-07-31T09:14:26;12.35;;;6.07;;
37609;SDS011;23457;51.966;8.230;2023-07-31T09:16:57;11.82;;;5.68;;
37609;SDS011;23457;51.966;8.230;2023-07-31T09:22:00;8.80;;;5.28;;
37609;SDS011;23457;51.966;8.230;2023-07-31T09:24:33;8.00;;;5.38;;
37609;SDS011;23457;51.966;8.230;2023-07-31T09:27:01;11.40;;;5.70;;
37609;SDS011;23457;51.966;8.230;2023-07-31T09:29:28;7.85;;;5.60;;
37609;SDS011;23457;51.966;8.230;2023-07-31T09:31:56;9.77;;;4.68;;
37609;SDS011;23457;51.966;8.230;2023-07-31T09:34:28;8.30;;;4.87;;
37609;SDS011;23457;51.966;8.230;2023-07-31T09:37:07;6.50;;;3.95;;
37609;SDS011;23457;51.966;8.230;2023-07-31T09:39:44;6.25;;;4.28;;
37609;SDS011;23457;51.966;8.230;2023-07-31T09:42:12;7.43;;;4.38;;
37609;SDS011;23457;51.966;8.230;2023-07-31T09:44:39;9.20;;;4.60;;
37609;SDS011;23457;51.966;8.230;2023-07-31T09:47:20;8.50;;;4.25;;
37609;SDS011;23457;51.966;8.230;2023-07-31T09:49:50;7.20;;;4.32;;
37609;SDS011;23457;51.966;8.230;2023-07-31T09:52:24;6.20;;;3.80;;
37609;SDS011;23457;51.966;8.230;2023-07-31T09:54:52;4.93;;;3.65;;
37609;SDS011;23457;51.966;8.230;2023-07-31T09:57:20;5.65;;;3.47;;
37609;SDS011;23457;51.966;8.230;2023-07-31T09:59:49;7.35;;;3.58;;
37609;SDS011;23457;51.966;8.230;2023-07-31T10:02:20;5.53;;;3.10;;
37609;SDS011;23457;51.966;8.230;2023-07-31T10:04:51;4.28;;;3.17;;
37609;SDS011;23457;51.966;8.230;2023-07-31T10:07:20;3.63;;;3.13;;
37609;SDS011;23457;51.966;8.230;2023-07-31T10:09:51;4.88;;;3.10;;
37609;SDS011;23457;51.966;8.230;2023-07-31T10:12:19;6.38;;;3.20;;
37609;SDS011;23457;51.966;8.230;2023-07-31T10:14:51;7.30;;;3.78;;
37609;SDS011;23457;51.966;8.230;2023-07-31T10:17:21;3.50;;;3.03;;
37609;SDS011;23457;51.966;8.230;2023-07-31T10:19:49;4.65;;;2.67;;
37609;SDS011;23457;51.966;8.230;2023-07-31T10:22:16;3.47;;;2.20;;
37609;SDS011;23457;51.966;8.230;2023-07-31T10:24:45;4.60;;;2.17;;
37609;SDS011;23457;51.966;8.230;2023-07-31T10:27:13;3.15;;;2.13;;
37609;SDS011;23457;51.966;8.230;2023-07-31T10:29:39;4.10;;;1.80;;
37609;SDS011;23457;51.966;8.230;2023-07-31T10:32:08;2.88;;;2.20;;
37609;SDS011;23457;51.966;8.230;2023-07-31T10:34:36;3.47;;;2.00;;
37609;SDS011;23457;51.966;8.230;2023-07-31T10:37:25;1.98;;;1.58;;
37609;SDS011;23457;51.966;8.230;2023-07-31T10:40:00;2.60;;;1.73;;
37609;SDS011;23457;51.966;8.230;2023-07-31T10:42:38;3.42;;;1.70;;
37609;SDS011;23457;51.966;8.230;2023-07-31T10:45:13;2.28;;;1.67;;
37609;SDS011;23457;51.966;8.230;2023-07-31T10:47:59;5.15;;;1.90;;
37609;SDS011;23457;51.966;8.230;2023-07-31T10:50:27;4.40;;;1.92;;
37609;SDS011;23457;51.966;8.230;2023-07-31T10:52:56;2.22;;;1.73;;
37609;SDS011;23457;51.966;8.230;2023-07-31T10:58:06;8.70;;;2.33;;
37609;SDS011;23457;51.966;8.230;2023-07-31T11:00:38;3.72;;;2.08;;
37609;SDS011;23457;51.966;8.230;2023-07-31T11:03:06;3.13;;;1.80;;
37609;SDS011;23457;51.966;8.230;2023-07-31T11:08:32;3.35;;;1.88;;
37609;SDS011;23457;51.966;8.230;2023-07-31T11:13:33;2.83;;;2.22;;
37609;SDS011;23457;51.966;8.230;2023-07-31T11:16:00;2.67;;;2.25;;
37609;SDS011;23457;51.966;8.230;2023-07-31T11:18:27;3.88;;;2.10;;
37609;SDS011;23457;51.966;8.230;2023-07-31T11:20:54;2.58;;;2.10;;
37609;SDS011;23457;51.966;8.230;2023-07-31T11:23:21;2.70;;;2.08;;
37609;SDS011;23457;51.966;8.230;2023-07-31T11:25:48;2.63;;;2.22;;
37609;SDS011;23457;51.966;8.230;2023-07-31T11:28:16;2.95;;;2.60;;
37609;SDS011;23457;51.966;8.230;2023-07-31T11:30:44;2.60;;;2.40;;
37609;SDS011;23457;51.966;8.230;2023-07-31T11:33:12;2.57;;;2.27;;
37609;SDS011;23457;51.966;8.230;2023-07-31T11:35:46;2.65;;;1.95;;
37609;SDS011;23457;51.966;8.230;2023-07-31T11:38:22;3.85;;;2.17;;
37609;SDS011;23457;51.966;8.230;2023-07-31T11:40:54;3.30;;;2.75;;
37609;SDS011;23457;51.966;8.230;2023-07-31T11:43:23;2.75;;;2.47;;
37609;SDS011;23457;51.966;8.230;2023-07-31T11:45:54;3.13;;;2.83;;
37609;SDS011;23457;51.966;8.230;2023-07-31T11:48:26;5.63;;;2.45;;
37609;SDS011;23457;51.966;8.230;2023-07-31T11:50:54;4.15;;;2.05;;
37609;SDS011;23457;51.966;8.230;2023-07-31T11:53:35;3.15;;;2.35;;
37609;SDS011;23457;51.966;8.230;2023-07-31T11:56:04;2.75;;;2.30;;
37609;SDS011;23457;51.966;8.230;2023-07-31T11:58:34;2.67;;;2.13;;
37609;SDS011;23457;51.966;8.230;2023-07-31T12:01:02;3.25;;;2.05;;
37609;SDS011;23457;51.966;8.230;2023-07-31T12:03:29;2.35;;;2.15;;
37609;SDS011;23457;51.966;8.230;2023-07-31T12:05:56;3.05;;;2.40;;
37609;SDS011;23457;51.966;8.230;2023-07-31T12:08:23;2.78;;;2.10;;
37609;SDS011;23457;51.966;8.230;2023-07-31T12:10:51;5.03;;;2.80;;
37609;SDS011;23457;51.966;8.230;2023-07-31T12:13:22;2.50;;;2.28;;
37609;SDS011;23457;51.966;8.230;2023-07-31T12:15:56;3.00;;;2.10;;
37609;SDS011;23457;51.966;8.230;2023-07-31T12:18:26;3.47;;;2.13;;
37609;SDS011;23457;51.966;8.230;2023-07-31T12:20:57;2.30;;;2.10;;
37609;SDS011;23457;51.966;8.230;2023-07-31T12:23:26;3.15;;;2.70;;
37609;SDS011;23457;51.966;8.230;2023-07-31T12:26:03;4.28;;;2.35;;
37609;SDS011;23457;51.966;8.230;2023-07-31T12:28:50;2.95;;;2.75;;
37609;SDS011;23457;51.966;8.230;2023-07-31T12:33:50;5.15;;;4.20;;
37609;SDS011;23457;51.966;8.230;2023-07-31T12:36:18;5.68;;;5.03;;
37609;SDS011;23457;51.966;8.230;2023-07-31T12:38:52;6.40;;;5.30;;
37609;SDS011;23457;51.966;8.230;2023-07-31T12:41:19;5.63;;;5.07;;
37609;SDS011;23457;51.966;8.230;2023-07-31T12:43:45;7.03;;;6.18;;
37609;SDS011;23457;51.966;8.230;2023-07-31T12:46:12;10.43;;;8.27;;
37609;SDS011;23457;51.966;8.230;2023-07-31T12:48:39;9.32;;;8.43;;
37609;SDS011;23457;51.966;8.230;2023-07-31T12:51:06;13.25;;;9.57;;
37609;SDS011;23457;51.966;8.230;2023-07-31T12:53:34;12.18;;;9.18;;
37609;SDS011;23457;51.966;8.230;2023-07-31T12:56:01;10.98;;;9.43;;
37609;SDS011;23457;51.966;8.230;2023-07-31T12:58:28;10.90;;;9.10;;
37609;SDS011;23457;51.966;8.230;2023-07-31T13:00:55;12.77;;;9.18;;
37609;SDS011;23457;51.966;8.230;2023-07-31T13:03:21;9.95;;;7.93;;
37609;SDS011;23457;51.966;8.230;2023-07-31T13:05:48;12.23;;;8.38;;
37609;SDS011;23457;51.966;8.230;2023-07-31T13:08:15;8.90;;;7.00;;
37609;SDS011;23457;51.966;8.230;2023-07-31T13:10:43;11.32;;;7.90;;
37609;SDS011;23457;51.966;8.230;2023-07-31T13:13:10;7.88;;;6.07;;
37609;SDS011;23457;51.966;8.230;2023-07-31T13:15:37;8.45;;;6.07;;
37609;SDS011;23457;51.966;8.230;2023-07-31T13:18:03;7.22;;;4.90;;
37609;SDS011;23457;51.966;8.230;2023-07-31T13:20:30;5.95;;;5.25;;
37609;SDS011;23457;51.966;8.230;2023-07-31T13:22:57;6.78;;;5.05;;
37609;SDS011;23457;51.966;8.230;2023-07-31T13:25:24;8.38;;;5.03;;
37609;SDS011;23457;51.966;8.230;2023-07-31T13:27:50;7.53;;;4.05;;
37609;SDS011;23457;51.966;8.230;2023-07-31T13:30:17;6.90;;;4.57;;
37609;SDS011;23457;51.966;8.230;2023-07-31T13:32:44;8.10;;;4.20;;
37609;SDS011;23457;51.966;8.230;2023-07-31T13:35:10;4.55;;;3.78;;
37609;SDS011;23457;51.966;8.230;2023-07-31T13:37:38;5.50;;;4.10;;
37609;SDS011;23457;51.966;8.230;2023-07-31T13:40:05;6.32;;;4.25;;
37609;SDS011;23457;51.966;8.230;2023-07-31T13:42:32;6.60;;;4.95;;
37609;SDS011;23457;51.966;8.230;2023-07-31T13:44:59;6.97;;;4.93;;
37609;SDS011;23457;51.966;8.230;2023-07-31T13:47:28;6.68;;;5.07;;
37609;SDS011;23457;51.966;8.230;2023-07-31T13:49:55;7.35;;;5.05;;
37609;SDS011;23457;51.966;8.230;2023-07-31T13:52:22;5.68;;;4.65;;
37609;SDS011;23457;51.966;8.230;2023-07-31T13:54:49;5.45;;;4.80;;
37609;SDS011;23457;51.966;8.230;2023-07-31T13:57:15;7.07;;;5.10;;
37609;SDS011;23457;51.966;8.230;2023-07-31T13:59:42;7.32;;;4.82;;
37609;SDS011;23457;51.966;8.230;2023-07-31T14:02:09;5.97;;;4.60;;
37609;SDS011;23457;51.966;8.230;2023-07-31T14:04:35;5.25;;;4.72;;
37609;SDS011;23457;51.966;8.230;2023-07-31T14:07:02;7.25;;;4.80;;
37609;SDS011;23457;51.966;8.230;2023-07-31T14:09:30;7.68;;;4.60;;
37609;SDS011;23457;51.966;8.230;2023-07-31T14:11:57;6.25;;;4.78;;
37609;SDS011;23457;51.966;8.230;2023-07-31T14:14:24;8.02;;;4.88;;
37609;SDS011;23457;51.966;8.230;2023-07-31T14:16:50;9.32;;;5.03;;
37609;SDS011;23457;51.966;8.230;2023-07-31T14:19:17;6.57;;;5.40;;
37609;SDS011;23457;51.966;8.230;2023-07-31T14:21:44;6.80;;;4.78;;
37609;SDS011;23457;51.966;8.230;2023-07-31T14:24:22;6.13;;;4.88;;
37609;SDS011;23457;51.966;8.230;2023-07-31T14:26:49;5.78;;;5.18;;
37609;SDS011;23457;51.966;8.230;2023-07-31T14:29:16;7.03;;;4.95;;
37609;SDS011;23457;51.966;8.230;2023-07-31T14:31:42;6.22;;;5.18;;
37609;SDS011;23457;51.966;8.230;2023-07-31T14:34:09;7.00;;;5.50;;
37609;SDS011;23457;51.966;8.230;2023-07-31T14:36:36;5.82;;;4.80;;
37609;SDS011;23457;51.966;8.230;2023-07-31T14:39:03;8.05;;;4.82;;
37609;SDS011;23457;51.966;8.230;2023-07-31T14:41:29;5.32;;;4.30;;
37609;SDS011;23457;51.966;8.230;2023-07-31T14:43:56;5.28;;;4.35;;
37609;SDS011;23457;51.966;8.230;2023-07-31T14:46:23;5.43;;;4.45;;
37609;SDS011;23457;51.966;8.230;2023-07-31T14:48:49;5.97;;;4.07;;
37609;SDS011;23457;51.966;8.230;2023-07-31T14:51:16;9.00;;;4.50;;
37609;SDS011;23457;51.966;8.230;2023-07-31T14:53:43;4.63;;;4.03;;
37609;SDS011;23457;51.966;8.230;2023-07-31T14:56:10;7.97;;;3.88;;
37609;SDS011;23457;51.966;8.230;2023-07-31T14:58:37;5.35;;;4.07;;
37609;SDS011;23457;51.966;8.230;2023-07-31T15:01:03;6.18;;;3.30;;
37609;SDS011;23457;51.966;8.230;2023-07-31T15:03:30;7.57;;;3.63;;